Grimsley, Tennessee
Current Conditions -  °F | °C
As of 12:53 AM on Monday 24 Nov 2014 (Local Time) from KCSV Reporting Station
Overcast Overcast  
Wind Chill: 16°   Ceiling: 3800
Heat Index: 16°   Visibility: 10mi
Dew Point: 12°   Wind: 9mph
Humidity: 80%   Direction: 190°S
Pressure: 29.6"   Gusts: 18mph
Location:  36.27°N, 84.98°W
Report Text: KCSV 240653Z AUTO 19008G16KT 160V220 10SM FEW013 BKN038 OVC045 16/12 A2960 RMK AO2 SLP011 T01560122
Loading
Personal Weather Stations






























Interactive Weather Map New forecast layout! Learn more

10-Day Weather Forecast

Advertisements
Track Severe Weather on mobile